sensor_id;sensor_type;location;lat;lon;timestamp;pressure;altitude;pressure_sealevel;temperature;humidity
5814;BME280;2933;52.302;8.134;2024-02-16T00:02:20;76735.63;;;-148.04;100.00
5814;BME280;2933;52.302;8.134;2024-02-16T00:07:23;76747.53;;;-148.04;100.00
5814;BME280;2933;52.302;8.134;2024-02-16T00:12:26;76755.50;;;-148.04;100.00
5814;BME280;2933;52.302;8.134;2024-02-16T00:17:27;76769.41;;;-148.04;100.00
5814;BME280;2933;52.302;8.134;2024-02-16T00:22:29;76763.44;;;-148.04;100.00
5814;BME280;2933;52.302;8.134;2024-02-16T00:27:32;76777.38;;;-148.04;100.00
5814;BME280;2933;52.302;8.134;2024-02-16T00:32:34;76793.28;;;-148.04;100.00
5814;BME280;2933;52.302;8.134;2024-02-16T00:37:37;76819.13;;;-148.04;100.00
5814;BME280;2933;52.302;8.134;2024-02-16T00:42:40;76827.06;;;-148.04;100.00
5814;BME280;2933;52.302;8.134;2024-02-16T00:47:42;76819.13;;;-148.04;100.00
5814;BME280;2933;52.302;8.134;2024-02-16T00:52:45;76821.09;;;-148.04;100.00
5814;BME280;2933;52.302;8.134;2024-02-16T00:57:48;76813.16;;;-148.04;100.00
5814;BME280;2933;52.302;8.134;2024-02-16T01:02:49;76823.09;;;-148.04;100.00
5814;BME280;2933;52.302;8.134;2024-02-16T01:07:51;76840.97;;;-148.04;100.00
5814;BME280;2933;52.302;8.134;2024-02-16T01:12:54;76840.97;;;-148.04;100.00
5814;BME280;2933;52.302;8.134;2024-02-16T01:17:56;76850.91;;;-148.04;100.00
5814;BME280;2933;52.302;8.134;2024-02-16T01:23:00;76858.88;;;-148.04;100.00
5814;BME280;2933;52.302;8.134;2024-02-16T01:28:03;76868.81;;;-148.04;100.00
5814;BME280;2933;52.302;8.134;2024-02-16T01:33:05;76866.81;;;-148.04;100.00
5814;BME280;2933;52.302;8.134;2024-02-16T01:38:07;76874.78;;;-148.04;100.00
5814;BME280;2933;52.302;8.134;2024-02-16T01:43:10;76862.84;;;-148.04;100.00
5814;BME280;2933;52.302;8.134;2024-02-16T01:48:13;76848.94;;;-148.04;100.00
5814;BME280;2933;52.302;8.134;2024-02-16T01:53:15;76844.97;;;-148.04;100.00
5814;BME280;2933;52.302;8.134;2024-02-16T01:58:20;76825.06;;;-148.04;100.00
5814;BME280;2933;52.302;8.134;2024-02-16T02:03:21;76819.13;;;-148.04;100.00
5814;BME280;2933;52.302;8.134;2024-02-16T02:08:24;76801.22;;;-148.04;100.00
5814;BME280;2933;52.302;8.134;2024-02-16T02:13:27;76791.28;;;-148.04;100.00
5814;BME280;2933;52.302;8.134;2024-02-16T02:18:30;76777.38;;;-148.04;100.00
5814;BME280;2933;52.302;8.134;2024-02-16T02:23:33;76767.41;;;-148.04;100.00
5814;BME280;2933;52.302;8.134;2024-02-16T02:28:35;76743.56;;;-148.04;100.00
5814;BME280;2933;52.302;8.134;2024-02-16T02:33:37;76729.66;;;-148.04;100.00
5814;BME280;2933;52.302;8.134;2024-02-16T02:38:40;76717.72;;;-148.04;100.00
5814;BME280;2933;52.302;8.134;2024-02-16T02:43:42;76707.78;;;-148.04;100.00
5814;BME280;2933;52.302;8.134;2024-02-16T02:48:45;76699.81;;;-148.04;100.00
5814;BME280;2933;52.302;8.134;2024-02-16T02:53:48;76719.72;;;-148.04;100.00
5814;BME280;2933;52.302;8.134;2024-02-16T02:58:49;76721.69;;;-148.04;100.00
5814;BME280;2933;52.302;8.134;2024-02-16T03:03:51;76727.66;;;-148.04;100.00
5814;BME280;2933;52.302;8.134;2024-02-16T03:08:54;76733.63;;;-148.04;100.00
5814;BME280;2933;52.302;8.134;2024-02-16T03:13:56;76735.63;;;-148.04;100.00
5814;BME280;2933;52.302;8.134;2024-02-16T03:18:57;76717.72;;;-148.04;100.00
5814;BME280;2933;52.302;8.134;2024-02-16T03:24:01;76713.75;;;-148.04;100.00
5814;BME280;2933;52.302;8.134;2024-02-16T03:29:02;76713.75;;;-148.04;100.00
5814;BME280;2933;52.302;8.134;2024-02-16T03:34:04;76727.66;;;-148.04;100.00
5814;BME280;2933;52.302;8.134;2024-02-16T03:39:07;76711.75;;;-148.04;100.00
5814;BME280;2933;52.302;8.134;2024-02-16T03:44:09;76711.75;;;-148.04;100.00
5814;BME280;2933;52.302;8.134;2024-02-16T03:49:11;76705.78;;;-148.04;100.00
5814;BME280;2933;52.302;8.134;2024-02-16T03:54:13;76693.88;;;-148.04;100.00
5814;BME280;2933;52.302;8.134;2024-02-16T03:59:15;76701.81;;;-148.04;100.00
5814;BME280;2933;52.302;8.134;2024-02-16T04:04:17;76693.88;;;-148.04;100.00
5814;BME280;2933;52.302;8.134;2024-02-16T04:09:20;76683.94;;;-148.04;100.00
5814;BME280;2933;52.302;8.134;2024-02-16T04:14:21;76672.00;;;-148.04;100.00
5814;BME280;2933;52.302;8.134;2024-02-16T04:19:23;76670.00;;;-148.04;100.00
5814;BME280;2933;52.302;8.134;2024-02-16T04:24:26;76691.88;;;-148.04;100.00
5814;BME280;2933;52.302;8.134;2024-02-16T04:29:27;76693.88;;;-148.04;100.00
5814;BME280;2933;52.302;8.134;2024-02-16T04:34:29;76709.78;;;-148.04;100.00
5814;BME280;2933;52.302;8.134;2024-02-16T04:39:32;76717.72;;;-148.04;100.00
5814;BME280;2933;52.302;8.134;2024-02-16T04:44:36;76717.72;;;-148.04;100.00
5814;BME280;2933;52.302;8.134;2024-02-16T04:49:39;76713.75;;;-148.04;100.00
5814;BME280;2933;52.302;8.134;2024-02-16T04:54:42;76729.66;;;-148.04;100.00
5814;BME280;2933;52.302;8.134;2024-02-16T04:59:44;76741.56;;;-148.04;100.00
5814;BME280;2933;52.302;8.134;2024-02-16T05:04:45;76747.53;;;-148.04;100.00
5814;BME280;2933;52.302;8.134;2024-02-16T05:09:48;76761.47;;;-148.04;100.00
5814;BME280;2933;52.302;8.134;2024-02-16T05:14:55;76759.47;;;-148.04;100.00
5814;BME280;2933;52.302;8.134;2024-02-16T05:19:57;76685.91;;;-148.04;100.00
5814;BME280;2933;52.302;8.134;2024-02-16T05:25:00;76689.88;;;-148.04;100.00
5814;BME280;2933;52.302;8.134;2024-02-16T05:30:02;76695.84;;;-148.04;100.00
5814;BME280;2933;52.302;8.134;2024-02-16T05:35:06;76683.94;;;-148.04;100.00
5814;BME280;2933;52.302;8.134;2024-02-16T05:40:13;76687.91;;;-148.04;100.00
5814;BME280;2933;52.302;8.134;2024-02-16T05:45:22;76658.09;;;-148.04;100.00
5814;BME280;2933;52.302;8.134;2024-02-16T05:50:23;76638.19;;;-148.04;100.00
5814;BME280;2933;52.302;8.134;2024-02-16T05:55:27;76610.38;;;-148.04;100.00
5814;BME280;2933;52.302;8.134;2024-02-16T06:00:28;76588.50;;;-148.04;100.00
5814;BME280;2933;52.302;8.134;2024-02-16T06:05:30;76592.47;;;-148.04;100.00
5814;BME280;2933;52.302;8.134;2024-02-16T06:10:34;76588.50;;;-148.04;100.00
5814;BME280;2933;52.302;8.134;2024-02-16T06:15:36;76580.56;;;-148.04;100.00
5814;BME280;2933;52.302;8.134;2024-02-16T06:20:38;76586.50;;;-148.04;100.00
5814;BME280;2933;52.302;8.134;2024-02-16T06:25:41;76582.53;;;-148.04;100.00
5814;BME280;2933;52.302;8.134;2024-02-16T06:30:42;76572.59;;;-148.04;100.00
5814;BME280;2933;52.302;8.134;2024-02-16T06:35:44;76558.69;;;-148.04;100.00
5814;BME280;2933;52.302;8.134;2024-02-16T06:40:48;76560.66;;;-148.04;100.00
5814;BME280;2933;52.302;8.134;2024-02-16T06:45:50;76570.59;;;-148.04;100.00
5814;BME280;2933;52.302;8.134;2024-02-16T06:50:51;76550.72;;;-148.04;100.00
5814;BME280;2933;52.302;8.134;2024-02-16T06:55:55;76562.66;;;-148.04;100.00
5814;BME280;2933;52.302;8.134;2024-02-16T07:00:57;76556.69;;;-148.04;100.00
5814;BME280;2933;52.302;8.134;2024-02-16T07:06:03;76558.69;;;-148.04;100.00
5814;BME280;2933;52.302;8.134;2024-02-16T07:11:09;76552.72;;;-148.04;100.00
5814;BME280;2933;52.302;8.134;2024-02-16T07:16:11;76566.63;;;-148.04;100.00
5814;BME280;2933;52.302;8.134;2024-02-16T07:21:13;76556.69;;;-148.04;100.00
5814;BME280;2933;52.302;8.134;2024-02-16T07:26:16;76528.88;;;-148.04;100.00
5814;BME280;2933;52.302;8.134;2024-02-16T07:31:18;76534.81;;;-148.04;100.00
5814;BME280;2933;52.302;8.134;2024-02-16T07:36:19;76536.81;;;-148.04;100.00
5814;BME280;2933;52.302;8.134;2024-02-16T07:41:22;76526.88;;;-148.04;100.00
5814;BME280;2933;52.302;8.134;2024-02-16T07:46:24;76510.97;;;-148.04;100.00
5814;BME280;2933;52.302;8.134;2024-02-16T07:51:25;76491.09;;;-148.04;100.00
5814;BME280;2933;52.302;8.134;2024-02-16T07:56:28;76473.19;;;-148.04;100.00
5814;BME280;2933;52.302;8.134;2024-02-16T08:01:30;76455.31;;;-148.04;100.00
5814;BME280;2933;52.302;8.134;2024-02-16T08:06:32;76455.31;;;-148.04;100.00
5814;BME280;2933;52.302;8.134;2024-02-16T08:11:35;76453.31;;;-148.04;100.00
5814;BME280;2933;52.302;8.134;2024-02-16T08:16:37;76437.41;;;-148.04;100.00
5814;BME280;2933;52.302;8.134;2024-02-16T08:21:38;76419.53;;;-148.04;100.00
5814;BME280;2933;52.302;8.134;2024-02-16T08:26:41;76419.53;;;-148.04;100.00
5814;BME280;2933;52.302;8.134;2024-02-16T08:31:43;76399.66;;;-148.04;100.00
5814;BME280;2933;52.302;8.134;2024-02-16T08:36:45;76387.72;;;-148.04;100.00
5814;BME280;2933;52.302;8.134;2024-02-16T08:41:48;76385.72;;;-148.04;100.00
5814;BME280;2933;52.302;8.134;2024-02-16T08:46:49;76369.84;;;-148.04;100.00
5814;BME280;2933;52.302;8.134;2024-02-16T08:51:51;76367.84;;;-148.04;100.00
5814;BME280;2933;52.302;8.134;2024-02-16T08:56:55;76353.94;;;-148.04;100.00
5814;BME280;2933;52.302;8.134;2024-02-16T09:01:56;76357.91;;;-148.04;100.00
5814;BME280;2933;52.302;8.134;2024-02-16T09:06:59;76355.91;;;-148.04;100.00
5814;BME280;2933;52.302;8.134;2024-02-16T09:12:02;76351.94;;;-148.04;100.00
5814;BME280;2933;52.302;8.134;2024-02-16T09:17:04;76336.03;;;-148.04;100.00
5814;BME280;2933;52.302;8.134;2024-02-16T09:22:05;76306.22;;;-148.04;100.00
5814;BME280;2933;52.302;8.134;2024-02-16T09:27:08;76288.31;;;-148.04;100.00
5814;BME280;2933;52.302;8.134;2024-02-16T09:32:12;76298.28;;;-148.04;100.00
5814;BME280;2933;52.302;8.134;2024-02-16T09:37:14;76282.38;;;-148.04;100.00
5814;BME280;2933;52.302;8.134;2024-02-16T09:42:17;76288.31;;;-148.04;100.00
5814;BME280;2933;52.302;8.134;2024-02-16T09:47:20;76308.22;;;-148.04;100.00
5814;BME280;2933;52.302;8.134;2024-02-16T09:52:23;76316.16;;;-148.04;100.00
5814;BME280;2933;52.302;8.134;2024-02-16T09:57:26;76312.19;;;-148.04;100.00
5814;BME280;2933;52.302;8.134;2024-02-16T10:02:28;76310.19;;;-148.04;100.00
5814;BME280;2933;52.302;8.134;2024-02-16T10:07:32;76300.25;;;-148.04;100.00
5814;BME280;2933;52.302;8.134;2024-02-16T10:12:35;76310.19;;;-148.04;100.00
5814;BME280;2933;52.302;8.134;2024-02-16T10:17:37;76302.25;;;-148.04;100.00
5814;BME280;2933;52.302;8.134;2024-02-16T10:22:38;76310.19;;;-148.04;100.00
5814;BME280;2933;52.302;8.134;2024-02-16T10:27:41;76302.25;;;-148.04;100.00
5814;BME280;2933;52.302;8.134;2024-02-16T10:32:43;76316.16;;;-148.04;100.00
5814;BME280;2933;52.302;8.134;2024-02-16T10:37:45;76328.09;;;-148.04;100.00
5814;BME280;2933;52.302;8.134;2024-02-16T10:42:49;76342.00;;;-148.04;100.00
5814;BME280;2933;52.302;8.134;2024-02-16T10:47:51;76355.91;;;-148.04;100.00
5814;BME280;2933;52.302;8.134;2024-02-16T10:52:53;76357.91;;;-148.04;100.00
5814;BME280;2933;52.302;8.134;2024-02-16T10:57:58;76365.84;;;-148.04;100.00
5814;BME280;2933;52.302;8.134;2024-02-16T11:03:02;76363.88;;;-148.04;100.00
5814;BME280;2933;52.302;8.134;2024-02-16T11:08:11;76359.91;;;-148.04;100.00
5814;BME280;2933;52.302;8.134;2024-02-16T11:13:22;76369.84;;;-148.04;100.00
5814;BME280;2933;52.302;8.134;2024-02-16T11:18:23;76367.84;;;-148.04;100.00
5814;BME280;2933;52.302;8.134;2024-02-16T11:23:27;76375.78;;;-148.04;100.00
5814;BME280;2933;52.302;8.134;2024-02-16T11:28:33;76371.81;;;-148.04;100.00
5814;BME280;2933;52.302;8.134;2024-02-16T11:33:35;76381.75;;;-148.04;100.00
5814;BME280;2933;52.302;8.134;2024-02-16T11:38:37;76375.78;;;-148.04;100.00
5814;BME280;2933;52.302;8.134;2024-02-16T11:43:40;76371.81;;;-148.04;100.00
5814;BME280;2933;52.302;8.134;2024-02-16T11:48:42;76373.81;;;-148.04;100.00
5814;BME280;2933;52.302;8.134;2024-02-16T11:53:43;76379.78;;;-148.04;100.00
5814;BME280;2933;52.302;8.134;2024-02-16T11:58:47;76383.75;;;-148.04;100.00
5814;BME280;2933;52.302;8.134;2024-02-16T12:03:49;76383.75;;;-148.04;100.00
5814;BME280;2933;52.302;8.134;2024-02-16T12:08:51;76371.81;;;-148.04;100.00
5814;BME280;2933;52.302;8.134;2024-02-16T12:13:55;76361.88;;;-148.04;100.00
5814;BME280;2933;52.302;8.134;2024-02-16T12:19:02;76357.91;;;-148.04;100.00
5814;BME280;2933;52.302;8.134;2024-02-16T12:24:04;76363.88;;;-148.04;100.00
5814;BME280;2933;52.302;8.134;2024-02-16T12:29:07;76363.88;;;-148.04;100.00
5814;BME280;2933;52.302;8.134;2024-02-16T12:34:12;76351.94;;;-148.04;100.00
5814;BME280;2933;52.302;8.134;2024-02-16T12:39:14;76351.94;;;-148.04;100.00
5814;BME280;2933;52.302;8.134;2024-02-16T12:44:17;76359.91;;;-148.04;100.00
5814;BME280;2933;52.302;8.134;2024-02-16T12:49:19;76349.94;;;-148.04;100.00
5814;BME280;2933;52.302;8.134;2024-02-16T12:54:22;76361.88;;;-148.04;100.00
5814;BME280;2933;52.302;8.134;2024-02-16T12:59:25;76367.84;;;-148.04;100.00
5814;BME280;2933;52.302;8.134;2024-02-16T13:04:27;76387.72;;;-148.04;100.00
5814;BME280;2933;52.302;8.134;2024-02-16T13:09:31;76403.63;;;-148.04;100.00
5814;BME280;2933;52.302;8.134;2024-02-16T13:14:34;76439.41;;;-148.04;100.00
5814;BME280;2933;52.302;8.134;2024-02-16T13:19:37;76455.31;;;-148.04;100.00
5814;BME280;2933;52.302;8.134;2024-02-16T13:24:38;76471.22;;;-148.04;100.00
5814;BME280;2933;52.302;8.134;2024-02-16T13:29:41;76487.13;;;-148.04;100.00
5814;BME280;2933;52.302;8.134;2024-02-16T13:34:43;76505.00;;;-148.04;100.00
5814;BME280;2933;52.302;8.134;2024-02-16T13:39:44;76526.88;;;-148.04;100.00
5814;BME280;2933;52.302;8.134;2024-02-16T13:44:47;76534.81;;;-148.04;100.00
5814;BME280;2933;52.302;8.134;2024-02-16T13:49:49;76546.75;;;-148.04;100.00
5814;BME280;2933;52.302;8.134;2024-02-16T13:54:52;76562.66;;;-148.04;100.00
5814;BME280;2933;52.302;8.134;2024-02-16T13:59:56;76578.56;;;-148.04;100.00
5814;BME280;2933;52.302;8.134;2024-02-16T14:04:58;76572.59;;;-148.04;100.00
5814;BME280;2933;52.302;8.134;2024-02-16T14:10:00;76580.56;;;-148.04;100.00
5814;BME280;2933;52.302;8.134;2024-02-16T14:15:04;76594.47;;;-148.04;100.00
5814;BME280;2933;52.302;8.134;2024-02-16T14:20:06;76614.34;;;-148.04;100.00
5814;BME280;2933;52.302;8.134;2024-02-16T14:25:10;76634.22;;;-148.04;100.00
5814;BME280;2933;52.302;8.134;2024-02-16T14:30:14;76638.19;;;-148.04;100.00
5814;BME280;2933;52.302;8.134;2024-02-16T14:35:16;76658.09;;;-148.04;100.00
5814;BME280;2933;52.302;8.134;2024-02-16T14:40:18;76668.03;;;-148.04;100.00
5814;BME280;2933;52.302;8.134;2024-02-16T14:45:21;76689.88;;;-148.04;100.00
5814;BME280;2933;52.302;8.134;2024-02-16T14:50:22;76699.81;;;-148.04;100.00
5814;BME280;2933;52.302;8.134;2024-02-16T14:55:24;76713.75;;;-148.04;100.00
5814;BME280;2933;52.302;8.134;2024-02-16T15:00:27;76717.72;;;-148.04;100.00
5814;BME280;2933;52.302;8.134;2024-02-16T15:05:29;76733.63;;;-148.04;100.00
5814;BME280;2933;52.302;8.134;2024-02-16T15:10:30;76749.53;;;-148.04;100.00
5814;BME280;2933;52.302;8.134;2024-02-16T15:15:34;76743.56;;;-148.04;100.00
5814;BME280;2933;52.302;8.134;2024-02-16T15:20:35;76761.47;;;-148.04;100.00
5814;BME280;2933;52.302;8.134;2024-02-16T15:25:37;76757.47;;;-148.04;100.00
5814;BME280;2933;52.302;8.134;2024-02-16T15:30:40;76761.47;;;-148.04;100.00
5814;BME280;2933;52.302;8.134;2024-02-16T15:35:42;76763.44;;;-148.04;100.00
5814;BME280;2933;52.302;8.134;2024-02-16T15:40:44;76781.34;;;-148.04;100.00
5814;BME280;2933;52.302;8.134;2024-02-16T15:45:47;76785.31;;;-148.04;100.00
5814;BME280;2933;52.302;8.134;2024-02-16T15:50:50;76797.25;;;-148.04;100.00
5814;BME280;2933;52.302;8.134;2024-02-16T15:55:51;76801.22;;;-148.04;100.00
5814;BME280;2933;52.302;8.134;2024-02-16T16:00:54;76811.16;;;-148.04;100.00
5814;BME280;2933;52.302;8.134;2024-02-16T16:05:56;76819.13;;;-148.04;100.00
5814;BME280;2933;52.302;8.134;2024-02-16T16:10:58;76827.06;;;-148.04;100.00
5814;BME280;2933;52.302;8.134;2024-02-16T16:16:04;76827.06;;;-148.04;100.00
5814;BME280;2933;52.302;8.134;2024-02-16T16:21:06;76825.06;;;-148.04;100.00
5814;BME280;2933;52.302;8.134;2024-02-16T16:26:08;76844.97;;;-148.04;100.00
5814;BME280;2933;52.302;8.134;2024-02-16T16:31:11;76850.91;;;-148.04;100.00
5814;BME280;2933;52.302;8.134;2024-02-16T16:36:13;76874.78;;;-148.04;100.00
5814;BME280;2933;52.302;8.134;2024-02-16T16:41:15;76880.75;;;-148.04;100.00
5814;BME280;2933;52.302;8.134;2024-02-16T16:46:18;76908.56;;;-148.04;100.00
5814;BME280;2933;52.302;8.134;2024-02-16T16:51:20;76918.53;;;-148.04;100.00
5814;BME280;2933;52.302;8.134;2024-02-16T16:56:22;76924.47;;;-148.04;100.00
5814;BME280;2933;52.302;8.134;2024-02-16T17:01:24;76934.41;;;-148.04;100.00
5814;BME280;2933;52.302;8.134;2024-02-16T17:06:26;76962.25;;;-148.04;100.00
5814;BME280;2933;52.302;8.134;2024-02-16T17:11:28;76968.22;;;-148.04;100.00
5814;BME280;2933;52.302;8.134;2024-02-16T17:21:41;76994.06;;;-148.04;100.00
5814;BME280;2933;52.302;8.134;2024-02-16T17:26:43;77000.03;;;-148.04;100.00
5814;BME280;2933;52.302;8.134;2024-02-16T17:31:47;77019.91;;;-148.04;100.00
5814;BME280;2933;52.302;8.134;2024-02-16T17:36:50;77019.91;;;-148.04;100.00
5814;BME280;2933;52.302;8.134;2024-02-16T17:41:51;77041.78;;;-148.04;100.00
5814;BME280;2933;52.302;8.134;2024-02-16T17:46:53;77041.78;;;-148.04;100.00
5814;BME280;2933;52.302;8.134;2024-02-16T17:51:56;77047.75;;;-148.04;100.00
5814;BME280;2933;52.302;8.134;2024-02-16T17:56:58;77051.72;;;-148.04;100.00
5814;BME280;2933;52.302;8.134;2024-02-16T18:02:01;77061.66;;;-148.04;100.00
5814;BME280;2933;52.302;8.134;2024-02-16T18:07:04;77075.59;;;-148.04;100.00
5814;BME280;2933;52.302;8.134;2024-02-16T18:12:11;77079.56;;;-148.04;100.00
5814;BME280;2933;52.302;8.134;2024-02-16T18:17:14;77083.53;;;-148.04;100.00
5814;BME280;2933;52.302;8.134;2024-02-16T18:22:18;77093.47;;;-148.04;100.00
5814;BME280;2933;52.302;8.134;2024-02-16T18:27:20;77103.41;;;-148.04;100.00
5814;BME280;2933;52.302;8.134;2024-02-16T18:32:21;77115.34;;;-148.04;100.00
5814;BME280;2933;52.302;8.134;2024-02-16T18:37:25;77133.25;;;-148.04;100.00
5814;BME280;2933;52.302;8.134;2024-02-16T18:42:26;77145.16;;;-148.04;100.00
5814;BME280;2933;52.302;8.134;2024-02-16T18:47:28;77153.13;;;-148.04;100.00
5814;BME280;2933;52.302;8.134;2024-02-16T18:52:31;77153.13;;;-148.04;100.00
5814;BME280;2933;52.302;8.134;2024-02-16T18:57:33;77155.13;;;-148.04;100.00
5814;BME280;2933;52.302;8.134;2024-02-16T19:02:35;77165.06;;;-148.04;100.00
5814;BME280;2933;52.302;8.134;2024-02-16T19:07:43;77163.06;;;-148.04;100.00
5814;BME280;2933;52.302;8.134;2024-02-16T19:12:45;77173.00;;;-148.04;100.00
5814;BME280;2933;52.302;8.134;2024-02-16T19:17:46;77169.03;;;-148.04;100.00
5814;BME280;2933;52.302;8.134;2024-02-16T19:22:49;77182.94;;;-148.04;100.00
5814;BME280;2933;52.302;8.134;2024-02-16T19:27:54;77202.84;;;-148.04;100.00
5814;BME280;2933;52.302;8.134;2024-02-16T19:32:56;77206.81;;;-148.04;100.00
5814;BME280;2933;52.302;8.134;2024-02-16T19:37:59;77218.75;;;-148.04;100.00
5814;BME280;2933;52.302;8.134;2024-02-16T19:43:01;77220.72;;;-148.04;100.00
5814;BME280;2933;52.302;8.134;2024-02-16T19:48:03;77230.66;;;-148.04;100.00
5814;BME280;2933;52.302;8.134;2024-02-16T19:53:06;77224.69;;;-148.04;100.00
5814;BME280;2933;52.302;8.134;2024-02-16T19:58:10;77244.59;;;-148.04;100.00
5814;BME280;2933;52.302;8.134;2024-02-16T20:03:11;77252.53;;;-148.04;100.00
5814;BME280;2933;52.302;8.134;2024-02-16T20:08:14;77256.50;;;-148.04;100.00
5814;BME280;2933;52.302;8.134;2024-02-16T20:13:16;77264.47;;;-148.04;100.00
5814;BME280;2933;52.302;8.134;2024-02-16T20:18:17;77266.47;;;-148.04;100.00
5814;BME280;2933;52.302;8.134;2024-02-16T20:23:28;77270.44;;;-148.04;100.00
5814;BME280;2933;52.302;8.134;2024-02-16T20:28:30;77278.38;;;-148.04;100.00
5814;BME280;2933;52.302;8.134;2024-02-16T20:33:31;77282.38;;;-148.04;100.00
5814;BME280;2933;52.302;8.134;2024-02-16T20:38:34;77284.34;;;-148.04;100.00
5814;BME280;2933;52.302;8.134;2024-02-16T20:43:36;77294.28;;;-148.04;100.00
5814;BME280;2933;52.302;8.134;2024-02-16T20:48:38;77296.28;;;-148.04;100.00
5814;BME280;2933;52.302;8.134;2024-02-16T20:53:41;77304.25;;;-148.04;100.00
5814;BME280;2933;52.302;8.134;2024-02-16T20:58:43;77316.16;;;-148.04;100.00
5814;BME280;2933;52.302;8.134;2024-02-16T21:03:45;77340.03;;;-148.04;100.00
5814;BME280;2933;52.302;8.134;2024-02-16T21:08:49;77346.00;;;-148.04;100.00
5814;BME280;2933;52.302;8.134;2024-02-16T21:13:50;77351.97;;;-148.04;100.00
5814;BME280;2933;52.302;8.134;2024-02-16T21:18:53;77342.00;;;-148.04;100.00
5814;BME280;2933;52.302;8.134;2024-02-16T21:23:56;77346.00;;;-148.04;100.00
5814;BME280;2933;52.302;8.134;2024-02-16T21:28:59;77346.00;;;-148.04;100.00
5814;BME280;2933;52.302;8.134;2024-02-16T21:34:04;77353.94;;;-148.04;100.00
5814;BME280;2933;52.302;8.134;2024-02-16T21:39:08;77353.94;;;-148.04;100.00
5814;BME280;2933;52.302;8.134;2024-02-16T21:44:10;77355.94;;;-148.04;100.00
5814;BME280;2933;52.302;8.134;2024-02-16T21:49:11;77353.94;;;-148.04;100.00
5814;BME280;2933;52.302;8.134;2024-02-16T21:54:14;77359.91;;;-148.04;100.00
5814;BME280;2933;52.302;8.134;2024-02-16T21:59:16;77371.84;;;-148.04;100.00
5814;BME280;2933;52.302;8.134;2024-02-16T22:04:18;77377.81;;;-148.04;100.00
5814;BME280;2933;52.302;8.134;2024-02-16T22:09:21;77375.81;;;-148.04;100.00
5814;BME280;2933;52.302;8.134;2024-02-16T22:14:22;77371.84;;;-148.04;100.00
5814;BME280;2933;52.302;8.134;2024-02-16T22:19:24;77391.72;;;-148.04;100.00
5814;BME280;2933;52.302;8.134;2024-02-16T22:24:27;77387.75;;;-148.04;100.00
5814;BME280;2933;52.302;8.134;2024-02-16T22:29:29;77397.69;;;-148.04;100.00
5814;BME280;2933;52.302;8.134;2024-02-16T22:34:31;77401.66;;;-148.04;100.00
5814;BME280;2933;52.302;8.134;2024-02-16T22:39:36;77393.72;;;-148.04;100.00
5814;BME280;2933;52.302;8.134;2024-02-16T22:44:38;77397.69;;;-148.04;100.00
5814;BME280;2933;52.302;8.134;2024-02-16T22:49:40;77405.63;;;-148.04;100.00
5814;BME280;2933;52.302;8.134;2024-02-16T22:54:43;77421.53;;;-148.04;100.00
5814;BME280;2933;52.302;8.134;2024-02-16T22:59:44;77447.41;;;-148.04;100.00
5814;BME280;2933;52.302;8.134;2024-02-16T23:04:46;77465.28;;;-148.04;100.00
5814;BME280;2933;52.302;8.134;2024-02-16T23:09:49;77485.19;;;-148.04;100.00
5814;BME280;2933;52.302;8.134;2024-02-16T23:14:51;77487.16;;;-148.04;100.00
5814;BME280;2933;52.302;8.134;2024-02-16T23:19:57;77497.09;;;-148.04;100.00
5814;BME280;2933;52.302;8.134;2024-02-16T23:25:00;77501.09;;;-148.04;100.00
5814;BME280;2933;52.302;8.134;2024-02-16T23:30:04;77517.00;;;-148.04;100.00
5814;BME280;2933;52.302;8.134;2024-02-16T23:35:08;77534.88;;;-148.04;100.00
5814;BME280;2933;52.302;8.134;2024-02-16T23:40:12;77536.88;;;-148.04;100.00
5814;BME280;2933;52.302;8.134;2024-02-16T23:45:16;77562.72;;;-148.04;100.00
5814;BME280;2933;52.302;8.134;2024-02-16T23:50:18;77566.69;;;-148.04;100.00
5814;BME280;2933;52.302;8.134;2024-02-16T23:55:21;77578.63;;;-148.04;100.00
